sensor_id;sensor_type;location;lat;lon;timestamp;P1;durP1;ratioP1;P2;durP2;ratioP2
1416;SDS011;703;51.162;13.574;2022-09-30T00:01:46;56.63;;;18.23;;
1416;SDS011;703;51.162;13.574;2022-09-30T00:04:15;56.37;;;18.47;;
1416;SDS011;703;51.162;13.574;2022-09-30T00:06:43;57.30;;;17.83;;
1416;SDS011;703;51.162;13.574;2022-09-30T00:09:09;56.50;;;18.33;;
1416;SDS011;703;51.162;13.574;2022-09-30T00:11:36;54.50;;;16.63;;
1416;SDS011;703;51.162;13.574;2022-09-30T00:14:03;55.30;;;19.47;;
1416;SDS011;703;51.162;13.574;2022-09-30T00:16:31;57.17;;;18.23;;
1416;SDS011;703;51.162;13.574;2022-09-30T00:18:59;54.67;;;17.40;;
1416;SDS011;703;51.162;13.574;2022-09-30T00:21:26;55.17;;;18.43;;
1416;SDS011;703;51.162;13.574;2022-09-30T00:23:52;56.83;;;16.43;;
1416;SDS011;703;51.162;13.574;2022-09-30T00:26:19;55.13;;;17.80;;
1416;SDS011;703;51.162;13.574;2022-09-30T00:28:53;53.40;;;16.27;;
1416;SDS011;703;51.162;13.574;2022-09-30T00:31:21;53.27;;;16.43;;
1416;SDS011;703;51.162;13.574;2022-09-30T00:33:48;57.37;;;19.03;;
1416;SDS011;703;51.162;13.574;2022-09-30T00:36:33;55.30;;;17.97;;
1416;SDS011;703;51.162;13.574;2022-09-30T00:39:02;56.20;;;18.60;;
1416;SDS011;703;51.162;13.574;2022-09-30T00:41:28;56.60;;;16.67;;
1416;SDS011;703;51.162;13.574;2022-09-30T00:43:54;59.40;;;18.17;;
1416;SDS011;703;51.162;13.574;2022-09-30T00:46:32;58.40;;;18.30;;
1416;SDS011;703;51.162;13.574;2022-09-30T00:49:02;54.67;;;19.00;;
1416;SDS011;703;51.162;13.574;2022-09-30T00:51:35;53.77;;;18.87;;
1416;SDS011;703;51.162;13.574;2022-09-30T00:54:06;54.47;;;18.20;;
1416;SDS011;703;51.162;13.574;2022-09-30T00:56:37;54.43;;;17.10;;
1416;SDS011;703;51.162;13.574;2022-09-30T00:59:14;55.47;;;17.80;;
1416;SDS011;703;51.162;13.574;2022-09-30T01:01:43;54.83;;;17.23;;
1416;SDS011;703;51.162;13.574;2022-09-30T01:04:10;55.23;;;17.80;;
1416;SDS011;703;51.162;13.574;2022-09-30T01:06:38;56.90;;;17.73;;
1416;SDS011;703;51.162;13.574;2022-09-30T01:09:04;55.97;;;16.53;;
1416;SDS011;703;51.162;13.574;2022-09-30T01:11:30;51.73;;;16.60;;
1416;SDS011;703;51.162;13.574;2022-09-30T01:13:58;55.93;;;19.83;;
1416;SDS011;703;51.162;13.574;2022-09-30T01:19:31;59.80;;;19.50;;
1416;SDS011;703;51.162;13.574;2022-09-30T01:33:45;54.43;;;16.50;;
1416;SDS011;703;51.162;13.574;2022-09-30T01:36:30;56.87;;;18.23;;
1416;SDS011;703;51.162;13.574;2022-09-30T01:39:12;54.83;;;17.23;;
1416;SDS011;703;51.162;13.574;2022-09-30T01:44:53;54.10;;;17.37;;
1416;SDS011;703;51.162;13.574;2022-09-30T01:50:09;54.40;;;18.40;;
1416;SDS011;703;51.162;13.574;2022-09-30T01:55:30;55.00;;;16.97;;
1416;SDS011;703;51.162;13.574;2022-09-30T02:00:43;55.20;;;17.33;;
1416;SDS011;703;51.162;13.574;2022-09-30T02:03:16;53.20;;;16.07;;
1416;SDS011;703;51.162;13.574;2022-09-30T02:05:54;53.70;;;17.93;;
1416;SDS011;703;51.162;13.574;2022-09-30T02:08:46;54.10;;;18.07;;
1416;SDS011;703;51.162;13.574;2022-09-30T02:11:25;56.03;;;17.37;;
1416;SDS011;703;51.162;13.574;2022-09-30T02:14:01;54.00;;;15.87;;
1416;SDS011;703;51.162;13.574;2022-09-30T02:16:46;53.90;;;16.63;;
1416;SDS011;703;51.162;13.574;2022-09-30T02:19:48;55.00;;;16.60;;
1416;SDS011;703;51.162;13.574;2022-09-30T02:22:16;56.90;;;19.07;;
1416;SDS011;703;51.162;13.574;2022-09-30T02:24:46;53.83;;;16.13;;
1416;SDS011;703;51.162;13.574;2022-09-30T02:27:16;54.87;;;16.03;;
1416;SDS011;703;51.162;13.574;2022-09-30T02:29:48;52.57;;;15.63;;
1416;SDS011;703;51.162;13.574;2022-09-30T02:32:19;52.50;;;14.93;;
1416;SDS011;703;51.162;13.574;2022-09-30T02:35:08;59.10;;;17.77;;
1416;SDS011;703;51.162;13.574;2022-09-30T02:37:41;52.97;;;17.40;;
1416;SDS011;703;51.162;13.574;2022-09-30T02:40:19;54.30;;;17.87;;
1416;SDS011;703;51.162;13.574;2022-09-30T02:42:46;54.53;;;17.90;;
1416;SDS011;703;51.162;13.574;2022-09-30T02:45:14;53.80;;;15.70;;
1416;SDS011;703;51.162;13.574;2022-09-30T02:50:29;53.77;;;18.27;;
1416;SDS011;703;51.162;13.574;2022-09-30T02:58:33;55.20;;;18.47;;
1416;SDS011;703;51.162;13.574;2022-09-30T03:01:03;54.43;;;17.80;;
1416;SDS011;703;51.162;13.574;2022-09-30T03:03:32;55.13;;;14.97;;
1416;SDS011;703;51.162;13.574;2022-09-30T03:06:03;53.27;;;15.60;;
1416;SDS011;703;51.162;13.574;2022-09-30T03:08:29;59.33;;;17.97;;
1416;SDS011;703;51.162;13.574;2022-09-30T03:10:54;56.73;;;18.20;;
1416;SDS011;703;51.162;13.574;2022-09-30T03:16:12;52.57;;;16.07;;
1416;SDS011;703;51.162;13.574;2022-09-30T03:24:29;59.57;;;17.90;;
1416;SDS011;703;51.162;13.574;2022-09-30T03:27:07;51.57;;;15.90;;
1416;SDS011;703;51.162;13.574;2022-09-30T03:29:46;53.40;;;16.20;;
1416;SDS011;703;51.162;13.574;2022-09-30T03:35:13;53.43;;;15.40;;
1416;SDS011;703;51.162;13.574;2022-09-30T03:40:30;54.57;;;16.70;;
1416;SDS011;703;51.162;13.574;2022-09-30T03:45:54;52.60;;;16.63;;
1416;SDS011;703;51.162;13.574;2022-09-30T03:48:26;55.77;;;15.53;;
1416;SDS011;703;51.162;13.574;2022-09-30T03:50:54;53.60;;;16.23;;
1416;SDS011;703;51.162;13.574;2022-09-30T03:53:22;54.23;;;16.37;;
1416;SDS011;703;51.162;13.574;2022-09-30T03:55:50;53.80;;;15.80;;
1416;SDS011;703;51.162;13.574;2022-09-30T03:58:16;56.50;;;15.07;;
1416;SDS011;703;51.162;13.574;2022-09-30T04:00:46;54.40;;;16.63;;
1416;SDS011;703;51.162;13.574;2022-09-30T04:03:14;53.57;;;15.93;;
1416;SDS011;703;51.162;13.574;2022-09-30T04:05:57;52.13;;;15.67;;
1416;SDS011;703;51.162;13.574;2022-09-30T04:08:23;53.07;;;15.20;;
1416;SDS011;703;51.162;13.574;2022-09-30T04:10:49;58.03;;;15.60;;
1416;SDS011;703;51.162;13.574;2022-09-30T04:13:15;52.80;;;14.90;;
1416;SDS011;703;51.162;13.574;2022-09-30T04:15:41;55.37;;;15.67;;
1416;SDS011;703;51.162;13.574;2022-09-30T04:18:07;54.40;;;16.43;;
1416;SDS011;703;51.162;13.574;2022-09-30T04:20:33;55.53;;;15.97;;
1416;SDS011;703;51.162;13.574;2022-09-30T04:22:59;52.53;;;15.83;;
1416;SDS011;703;51.162;13.574;2022-09-30T04:25:26;54.27;;;16.47;;
1416;SDS011;703;51.162;13.574;2022-09-30T04:27:52;52.30;;;14.83;;
1416;SDS011;703;51.162;13.574;2022-09-30T04:30:19;56.20;;;17.53;;
1416;SDS011;703;51.162;13.574;2022-09-30T04:35:39;55.43;;;17.37;;
1416;SDS011;703;51.162;13.574;2022-09-30T04:38:05;57.97;;;16.83;;
1416;SDS011;703;51.162;13.574;2022-09-30T04:40:34;56.50;;;17.50;;
1416;SDS011;703;51.162;13.574;2022-09-30T04:43:01;56.60;;;16.03;;
1416;SDS011;703;51.162;13.574;2022-09-30T04:45:27;55.50;;;16.97;;
1416;SDS011;703;51.162;13.574;2022-09-30T04:47:54;54.87;;;17.00;;
1416;SDS011;703;51.162;13.574;2022-09-30T04:50:20;56.63;;;17.67;;
1416;SDS011;703;51.162;13.574;2022-09-30T04:52:45;56.73;;;18.40;;
1416;SDS011;703;51.162;13.574;2022-09-30T04:55:12;57.77;;;20.50;;
1416;SDS011;703;51.162;13.574;2022-09-30T04:57:38;55.40;;;18.83;;
1416;SDS011;703;51.162;13.574;2022-09-30T05:00:04;57.97;;;19.03;;
1416;SDS011;703;51.162;13.574;2022-09-30T05:05:22;56.40;;;17.60;;
1416;SDS011;703;51.162;13.574;2022-09-30T05:08:02;53.10;;;15.40;;
1416;SDS011;703;51.162;13.574;2022-09-30T05:10:28;57.87;;;16.03;;
1416;SDS011;703;51.162;13.574;2022-09-30T05:12:54;54.87;;;17.50;;
1416;SDS011;703;51.162;13.574;2022-09-30T05:15:21;56.20;;;16.10;;
1416;SDS011;703;51.162;13.574;2022-09-30T05:17:50;57.10;;;19.40;;
1416;SDS011;703;51.162;13.574;2022-09-30T05:20:16;55.20;;;17.70;;
1416;SDS011;703;51.162;13.574;2022-09-30T05:22:45;57.20;;;18.23;;
1416;SDS011;703;51.162;13.574;2022-09-30T05:25:11;62.90;;;20.90;;
1416;SDS011;703;51.162;13.574;2022-09-30T05:27:37;56.23;;;19.93;;
1416;SDS011;703;51.162;13.574;2022-09-30T05:30:03;62.10;;;20.47;;
1416;SDS011;703;51.162;13.574;2022-09-30T05:32:30;60.70;;;20.73;;
1416;SDS011;703;51.162;13.574;2022-09-30T05:35:13;66.83;;;21.83;;
1416;SDS011;703;51.162;13.574;2022-09-30T05:37:39;63.67;;;22.33;;
1416;SDS011;703;51.162;13.574;2022-09-30T05:40:06;57.60;;;20.03;;
1416;SDS011;703;51.162;13.574;2022-09-30T05:42:32;63.43;;;23.07;;
1416;SDS011;703;51.162;13.574;2022-09-30T05:45:01;63.57;;;24.73;;
1416;SDS011;703;51.162;13.574;2022-09-30T05:47:28;61.77;;;22.27;;
1416;SDS011;703;51.162;13.574;2022-09-30T05:49:54;60.47;;;21.43;;
1416;SDS011;703;51.162;13.574;2022-09-30T05:52:20;59.93;;;21.47;;
1416;SDS011;703;51.162;13.574;2022-09-30T05:54:46;57.13;;;20.20;;
1416;SDS011;703;51.162;13.574;2022-09-30T05:57:13;57.00;;;19.27;;
1416;SDS011;703;51.162;13.574;2022-09-30T05:59:42;59.33;;;19.60;;
1416;SDS011;703;51.162;13.574;2022-09-30T06:02:08;59.40;;;19.47;;
1416;SDS011;703;51.162;13.574;2022-09-30T06:04:35;58.17;;;18.57;;
1416;SDS011;703;51.162;13.574;2022-09-30T06:07:01;55.40;;;19.00;;
1416;SDS011;703;51.162;13.574;2022-09-30T06:09:27;54.80;;;17.37;;
1416;SDS011;703;51.162;13.574;2022-09-30T06:11:53;55.83;;;18.87;;
1416;SDS011;703;51.162;13.574;2022-09-30T06:14:22;55.20;;;17.03;;
1416;SDS011;703;51.162;13.574;2022-09-30T06:16:48;60.05;;;17.63;;
1416;SDS011;703;51.162;13.574;2022-09-30T06:19:14;61.63;;;17.47;;
1416;SDS011;703;51.162;13.574;2022-09-30T06:21:40;60.70;;;19.73;;
1416;SDS011;703;51.162;13.574;2022-09-30T06:24:06;57.03;;;18.53;;
1416;SDS011;703;51.162;13.574;2022-09-30T06:26:37;58.40;;;17.63;;
1416;SDS011;703;51.162;13.574;2022-09-30T06:29:03;59.60;;;18.43;;
1416;SDS011;703;51.162;13.574;2022-09-30T06:31:29;65.80;;;17.27;;
1416;SDS011;703;51.162;13.574;2022-09-30T06:33:55;54.30;;;15.77;;
1416;SDS011;703;51.162;13.574;2022-09-30T06:36:22;53.10;;;15.10;;
1416;SDS011;703;51.162;13.574;2022-09-30T06:38:48;54.13;;;14.93;;
1416;SDS011;703;51.162;13.574;2022-09-30T06:41:18;50.87;;;15.43;;
1416;SDS011;703;51.162;13.574;2022-09-30T06:43:44;53.90;;;17.00;;
1416;SDS011;703;51.162;13.574;2022-09-30T06:46:10;53.53;;;16.93;;
1416;SDS011;703;51.162;13.574;2022-09-30T06:48:37;51.70;;;15.97;;
1416;SDS011;703;51.162;13.574;2022-09-30T06:51:03;53.10;;;16.60;;
1416;SDS011;703;51.162;13.574;2022-09-30T06:53:29;55.20;;;17.00;;
1416;SDS011;703;51.162;13.574;2022-09-30T06:55:55;53.27;;;17.43;;
1416;SDS011;703;51.162;13.574;2022-09-30T06:58:22;53.50;;;17.17;;
1416;SDS011;703;51.162;13.574;2022-09-30T07:00:57;52.63;;;16.20;;
1416;SDS011;703;51.162;13.574;2022-09-30T07:03:25;54.63;;;17.10;;
1416;SDS011;703;51.162;13.574;2022-09-30T07:05:59;51.03;;;15.40;;
1416;SDS011;703;51.162;13.574;2022-09-30T07:08:27;56.27;;;17.20;;
1416;SDS011;703;51.162;13.574;2022-09-30T07:10:56;54.43;;;16.77;;
1416;SDS011;703;51.162;13.574;2022-09-30T07:16:21;55.27;;;17.83;;
1416;SDS011;703;51.162;13.574;2022-09-30T07:18:49;59.70;;;18.13;;
1416;SDS011;703;51.162;13.574;2022-09-30T07:21:15;51.53;;;15.90;;
1416;SDS011;703;51.162;13.574;2022-09-30T07:23:42;54.93;;;17.53;;
1416;SDS011;703;51.162;13.574;2022-09-30T07:26:15;51.70;;;16.47;;
1416;SDS011;703;51.162;13.574;2022-09-30T07:28:43;50.80;;;14.77;;
1416;SDS011;703;51.162;13.574;2022-09-30T07:31:14;52.60;;;16.33;;
1416;SDS011;703;51.162;13.574;2022-09-30T07:33:42;54.43;;;16.40;;
1416;SDS011;703;51.162;13.574;2022-09-30T07:36:09;50.27;;;15.17;;
1416;SDS011;703;51.162;13.574;2022-09-30T07:38:36;54.17;;;16.50;;
1416;SDS011;703;51.162;13.574;2022-09-30T07:41:06;51.20;;;15.80;;
1416;SDS011;703;51.162;13.574;2022-09-30T07:43:34;52.70;;;15.40;;
1416;SDS011;703;51.162;13.574;2022-09-30T07:48:30;49.27;;;14.40;;
1416;SDS011;703;51.162;13.574;2022-09-30T07:51:15;50.37;;;15.50;;
1416;SDS011;703;51.162;13.574;2022-09-30T07:53:44;50.97;;;16.10;;
1416;SDS011;703;51.162;13.574;2022-09-30T07:56:11;50.40;;;15.93;;
1416;SDS011;703;51.162;13.574;2022-09-30T07:58:37;47.83;;;15.07;;
1416;SDS011;703;51.162;13.574;2022-09-30T08:01:04;50.33;;;16.10;;
1416;SDS011;703;51.162;13.574;2022-09-30T08:03:33;52.47;;;16.10;;
1416;SDS011;703;51.162;13.574;2022-09-30T08:06:04;51.40;;;16.33;;
1416;SDS011;703;51.162;13.574;2022-09-30T08:08:30;48.70;;;13.87;;
1416;SDS011;703;51.162;13.574;2022-09-30T08:11:00;48.33;;;14.00;;
1416;SDS011;703;51.162;13.574;2022-09-30T08:13:29;48.43;;;15.03;;
1416;SDS011;703;51.162;13.574;2022-09-30T08:15:58;52.30;;;15.20;;
1416;SDS011;703;51.162;13.574;2022-09-30T08:18:24;50.97;;;16.50;;
1416;SDS011;703;51.162;13.574;2022-09-30T08:20:51;48.13;;;15.60;;
1416;SDS011;703;51.162;13.574;2022-09-30T08:23:17;49.80;;;16.93;;
1416;SDS011;703;51.162;13.574;2022-09-30T08:25:43;49.83;;;16.00;;
1416;SDS011;703;51.162;13.574;2022-09-30T08:28:10;49.47;;;15.93;;
1416;SDS011;703;51.162;13.574;2022-09-30T08:30:36;50.57;;;16.20;;
1416;SDS011;703;51.162;13.574;2022-09-30T08:33:19;52.77;;;17.30;;
1416;SDS011;703;51.162;13.574;2022-09-30T08:35:44;46.40;;;14.00;;
1416;SDS011;703;51.162;13.574;2022-09-30T08:38:10;52.67;;;15.83;;
1416;SDS011;703;51.162;13.574;2022-09-30T08:40:38;50.10;;;14.93;;
1416;SDS011;703;51.162;13.574;2022-09-30T08:45:49;47.57;;;16.93;;
1416;SDS011;703;51.162;13.574;2022-09-30T08:48:37;50.23;;;16.43;;
1416;SDS011;703;51.162;13.574;2022-09-30T08:54:58;45.50;;;14.07;;
1416;SDS011;703;51.162;13.574;2022-09-30T09:00:03;43.13;;;12.20;;
1416;SDS011;703;51.162;13.574;2022-09-30T09:02:42;43.00;;;12.60;;
1416;SDS011;703;51.162;13.574;2022-09-30T09:05:42;42.37;;;12.77;;
1416;SDS011;703;51.162;13.574;2022-09-30T09:08:40;44.23;;;12.00;;
1416;SDS011;703;51.162;13.574;2022-09-30T09:11:28;44.53;;;13.80;;
1416;SDS011;703;51.162;13.574;2022-09-30T09:19:54;40.90;;;10.60;;
1416;SDS011;703;51.162;13.574;2022-09-30T09:22:38;42.00;;;11.10;;
1416;SDS011;703;51.162;13.574;2022-09-30T09:25:04;41.00;;;10.07;;
1416;SDS011;703;51.162;13.574;2022-09-30T09:30:24;45.90;;;11.93;;
1416;SDS011;703;51.162;13.574;2022-09-30T09:32:56;42.07;;;10.20;;
1416;SDS011;703;51.162;13.574;2022-09-30T09:46:49;42.07;;;11.87;;
1416;SDS011;703;51.162;13.574;2022-09-30T09:49:51;39.63;;;9.17;;
1416;SDS011;703;51.162;13.574;2022-09-30T09:52:43;41.83;;;9.00;;
1416;SDS011;703;51.162;13.574;2022-09-30T09:55:13;40.27;;;10.30;;
1416;SDS011;703;51.162;13.574;2022-09-30T09:57:44;41.53;;;10.83;;
1416;SDS011;703;51.162;13.574;2022-09-30T10:00:11;39.83;;;10.20;;
1416;SDS011;703;51.162;13.574;2022-09-30T10:03:24;41.63;;;12.23;;
1416;SDS011;703;51.162;13.574;2022-09-30T10:08:32;40.13;;;10.83;;
1416;SDS011;703;51.162;13.574;2022-09-30T10:11:00;41.00;;;11.20;;
1416;SDS011;703;51.162;13.574;2022-09-30T10:16:40;38.17;;;8.90;;
1416;SDS011;703;51.162;13.574;2022-09-30T10:19:20;38.10;;;10.40;;
1416;SDS011;703;51.162;13.574;2022-09-30T10:21:49;38.00;;;8.67;;
1416;SDS011;703;51.162;13.574;2022-09-30T10:24:19;38.57;;;8.97;;
1416;SDS011;703;51.162;13.574;2022-09-30T10:26:50;39.17;;;8.83;;
1416;SDS011;703;51.162;13.574;2022-09-30T10:29:29;42.10;;;11.13;;
1416;SDS011;703;51.162;13.574;2022-09-30T10:32:00;38.57;;;9.50;;
1416;SDS011;703;51.162;13.574;2022-09-30T10:34:33;36.67;;;7.37;;
1416;SDS011;703;51.162;13.574;2022-09-30T10:37:06;38.67;;;7.80;;
1416;SDS011;703;51.162;13.574;2022-09-30T10:39:35;36.50;;;8.10;;
1416;SDS011;703;51.162;13.574;2022-09-30T10:48:47;36.53;;;7.80;;
1416;SDS011;703;51.162;13.574;2022-09-30T10:51:19;36.93;;;7.87;;
1416;SDS011;703;51.162;13.574;2022-09-30T10:53:54;36.60;;;6.97;;
1416;SDS011;703;51.162;13.574;2022-09-30T10:56:30;35.43;;;7.30;;
1416;SDS011;703;51.162;13.574;2022-09-30T10:59:18;37.97;;;8.03;;
1416;SDS011;703;51.162;13.574;2022-09-30T11:01:56;37.63;;;7.60;;
1416;SDS011;703;51.162;13.574;2022-09-30T11:04:50;36.30;;;6.70;;
1416;SDS011;703;51.162;13.574;2022-09-30T11:07:25;36.90;;;7.80;;
1416;SDS011;703;51.162;13.574;2022-09-30T11:10:07;36.37;;;6.73;;
1416;SDS011;703;51.162;13.574;2022-09-30T11:13:00;36.67;;;8.37;;
1416;SDS011;703;51.162;13.574;2022-09-30T11:16:23;38.37;;;6.90;;
1416;SDS011;703;51.162;13.574;2022-09-30T11:18:49;36.23;;;8.27;;
1416;SDS011;703;51.162;13.574;2022-09-30T11:23:59;38.43;;;9.43;;
1416;SDS011;703;51.162;13.574;2022-09-30T11:29:24;36.70;;;6.70;;
1416;SDS011;703;51.162;13.574;2022-09-30T11:31:54;35.83;;;8.10;;
1416;SDS011;703;51.162;13.574;2022-09-30T11:37:28;36.33;;;6.60;;
1416;SDS011;703;51.162;13.574;2022-09-30T11:42:36;36.50;;;8.17;;
1416;SDS011;703;51.162;13.574;2022-09-30T11:45:12;36.70;;;7.73;;
1416;SDS011;703;51.162;13.574;2022-09-30T11:56:33;35.77;;;6.67;;
1416;SDS011;703;51.162;13.574;2022-09-30T11:59:03;37.17;;;6.70;;
1416;SDS011;703;51.162;13.574;2022-09-30T12:01:41;39.47;;;7.13;;
1416;SDS011;703;51.162;13.574;2022-09-30T12:04:28;38.33;;;6.53;;
1416;SDS011;703;51.162;13.574;2022-09-30T12:09:43;35.80;;;6.47;;
1416;SDS011;703;51.162;13.574;2022-09-30T12:12:12;35.93;;;4.80;;
1416;SDS011;703;51.162;13.574;2022-09-30T12:14:57;34.87;;;4.90;;
1416;SDS011;703;51.162;13.574;2022-09-30T12:25:57;34.40;;;5.23;;
1416;SDS011;703;51.162;13.574;2022-09-30T12:28:37;34.53;;;4.80;;
1416;SDS011;703;51.162;13.574;2022-09-30T12:48:13;35.47;;;6.57;;
1416;SDS011;703;51.162;13.574;2022-09-30T12:50:52;35.67;;;7.27;;
1416;SDS011;703;51.162;13.574;2022-09-30T12:53:28;35.37;;;6.33;;
1416;SDS011;703;51.162;13.574;2022-09-30T12:56:05;33.70;;;6.77;;
1416;SDS011;703;51.162;13.574;2022-09-30T12:58:37;34.27;;;5.63;;
1416;SDS011;703;51.162;13.574;2022-09-30T13:01:13;39.90;;;6.60;;
1416;SDS011;703;51.162;13.574;2022-09-30T13:04:08;36.13;;;6.60;;
1416;SDS011;703;51.162;13.574;2022-09-30T13:22:53;37.57;;;5.40;;
1416;SDS011;703;51.162;13.574;2022-09-30T13:25:20;34.50;;;4.37;;
1416;SDS011;703;51.162;13.574;2022-09-30T13:27:53;35.70;;;5.87;;
1416;SDS011;703;51.162;13.574;2022-09-30T13:30:37;36.17;;;6.20;;
1416;SDS011;703;51.162;13.574;2022-09-30T13:33:24;34.50;;;6.33;;
1416;SDS011;703;51.162;13.574;2022-09-30T13:35:58;36.43;;;5.83;;
1416;SDS011;703;51.162;13.574;2022-09-30T13:38:32;34.87;;;5.13;;
1416;SDS011;703;51.162;13.574;2022-09-30T13:46:55;34.73;;;4.23;;
1416;SDS011;703;51.162;13.574;2022-09-30T13:49:37;35.30;;;4.63;;
1416;SDS011;703;51.162;13.574;2022-09-30T13:52:07;34.70;;;4.53;;
1416;SDS011;703;51.162;13.574;2022-09-30T13:54:53;35.30;;;4.50;;
1416;SDS011;703;51.162;13.574;2022-09-30T13:57:31;34.43;;;4.10;;
1416;SDS011;703;51.162;13.574;2022-09-30T14:00:13;34.30;;;4.50;;
1416;SDS011;703;51.162;13.574;2022-09-30T14:02:56;34.23;;;4.47;;
1416;SDS011;703;51.162;13.574;2022-09-30T14:05:41;34.13;;;4.30;;
1416;SDS011;703;51.162;13.574;2022-09-30T14:13:34;34.20;;;3.87;;
1416;SDS011;703;51.162;13.574;2022-09-30T14:19:08;34.27;;;4.53;;
1416;SDS011;703;51.162;13.574;2022-09-30T14:21:42;35.57;;;4.40;;
1416;SDS011;703;51.162;13.574;2022-09-30T14:24:16;33.33;;;3.67;;
1416;SDS011;703;51.162;13.574;2022-09-30T14:29:44;34.93;;;4.50;;
1416;SDS011;703;51.162;13.574;2022-09-30T14:32:16;33.77;;;3.73;;
1416;SDS011;703;51.162;13.574;2022-09-30T14:34:54;35.20;;;5.40;;
1416;SDS011;703;51.162;13.574;2022-09-30T14:37:25;34.57;;;4.40;;
1416;SDS011;703;51.162;13.574;2022-09-30T14:39:54;33.70;;;4.43;;
1416;SDS011;703;51.162;13.574;2022-09-30T14:42:30;33.50;;;4.13;;
1416;SDS011;703;51.162;13.574;2022-09-30T14:45:00;33.83;;;4.83;;
1416;SDS011;703;51.162;13.574;2022-09-30T14:47:34;33.53;;;4.27;;
1416;SDS011;703;51.162;13.574;2022-09-30T14:50:12;33.57;;;3.80;;
1416;SDS011;703;51.162;13.574;2022-09-30T14:52:42;33.40;;;4.30;;
1416;SDS011;703;51.162;13.574;2022-09-30T14:55:19;33.90;;;3.97;;
1416;SDS011;703;51.162;13.574;2022-09-30T14:58:40;33.57;;;3.90;;
1416;SDS011;703;51.162;13.574;2022-09-30T15:00:57;33.23;;;3.90;;
1416;SDS011;703;51.162;13.574;2022-09-30T15:03:27;34.30;;;3.70;;
1416;SDS011;703;51.162;13.574;2022-09-30T15:05:54;33.60;;;4.07;;
1416;SDS011;703;51.162;13.574;2022-09-30T15:08:22;33.83;;;3.90;;
1416;SDS011;703;51.162;13.574;2022-09-30T15:10:48;35.00;;;4.93;;
1416;SDS011;703;51.162;13.574;2022-09-30T15:13:19;34.10;;;4.40;;
1416;SDS011;703;51.162;13.574;2022-09-30T15:15:47;34.50;;;4.30;;
1416;SDS011;703;51.162;13.574;2022-09-30T15:20:53;34.30;;;4.10;;
1416;SDS011;703;51.162;13.574;2022-09-30T15:23:25;34.30;;;4.20;;
1416;SDS011;703;51.162;13.574;2022-09-30T15:25:53;35.90;;;5.60;;
1416;SDS011;703;51.162;13.574;2022-09-30T15:28:21;37.50;;;5.50;;
1416;SDS011;703;51.162;13.574;2022-09-30T15:30:47;37.57;;;6.20;;
1416;SDS011;703;51.162;13.574;2022-09-30T15:33:16;35.77;;;5.40;;
1416;SDS011;703;51.162;13.574;2022-09-30T15:35:44;36.53;;;6.93;;
1416;SDS011;703;51.162;13.574;2022-09-30T15:38:17;37.37;;;7.07;;
1416;SDS011;703;51.162;13.574;2022-09-30T15:40:47;36.83;;;6.30;;
1416;SDS011;703;51.162;13.574;2022-09-30T15:43:30;36.00;;;5.60;;
1416;SDS011;703;51.162;13.574;2022-09-30T15:45:57;35.93;;;5.73;;
1416;SDS011;703;51.162;13.574;2022-09-30T15:48:43;35.70;;;5.80;;
1416;SDS011;703;51.162;13.574;2022-09-30T15:53:54;35.20;;;5.90;;
1416;SDS011;703;51.162;13.574;2022-09-30T15:56:25;35.80;;;6.10;;
1416;SDS011;703;51.162;13.574;2022-09-30T15:59:04;37.20;;;6.43;;
1416;SDS011;703;51.162;13.574;2022-09-30T16:01:35;35.07;;;6.20;;
1416;SDS011;703;51.162;13.574;2022-09-30T16:04:21;35.90;;;6.23;;
1416;SDS011;703;51.162;13.574;2022-09-30T16:06:55;34.53;;;6.00;;
1416;SDS011;703;51.162;13.574;2022-09-30T16:14:53;38.47;;;8.50;;
1416;SDS011;703;51.162;13.574;2022-09-30T16:17:29;37.17;;;6.30;;
1416;SDS011;703;51.162;13.574;2022-09-30T16:19:58;35.13;;;5.57;;
1416;SDS011;703;51.162;13.574;2022-09-30T16:25:02;36.90;;;6.80;;
1416;SDS011;703;51.162;13.574;2022-09-30T16:27:38;35.73;;;6.43;;
1416;SDS011;703;51.162;13.574;2022-09-30T16:30:04;36.20;;;7.40;;
1416;SDS011;703;51.162;13.574;2022-09-30T16:32:31;37.60;;;6.37;;
1416;SDS011;703;51.162;13.574;2022-09-30T16:35:02;36.10;;;6.37;;
1416;SDS011;703;51.162;13.574;2022-09-30T16:37:29;35.70;;;6.83;;
1416;SDS011;703;51.162;13.574;2022-09-30T16:39:57;39.87;;;8.30;;
1416;SDS011;703;51.162;13.574;2022-09-30T16:42:29;37.17;;;9.33;;
1416;SDS011;703;51.162;13.574;2022-09-30T16:44:56;39.90;;;11.20;;
1416;SDS011;703;51.162;13.574;2022-09-30T16:47:24;39.10;;;10.47;;
1416;SDS011;703;51.162;13.574;2022-09-30T16:49:50;47.63;;;19.43;;
1416;SDS011;703;51.162;13.574;2022-09-30T16:52:16;44.33;;;15.80;;
1416;SDS011;703;51.162;13.574;2022-09-30T16:54:42;44.20;;;16.70;;
1416;SDS011;703;51.162;13.574;2022-09-30T16:57:09;39.97;;;11.40;;
1416;SDS011;703;51.162;13.574;2022-09-30T16:59:37;45.73;;;14.20;;
1416;SDS011;703;51.162;13.574;2022-09-30T17:02:03;38.30;;;10.50;;
1416;SDS011;703;51.162;13.574;2022-09-30T17:04:29;38.30;;;10.50;;
1416;SDS011;703;51.162;13.574;2022-09-30T17:06:57;39.40;;;10.20;;
1416;SDS011;703;51.162;13.574;2022-09-30T17:09:23;38.60;;;9.77;;
1416;SDS011;703;51.162;13.574;2022-09-30T17:11:49;37.63;;;9.57;;
1416;SDS011;703;51.162;13.574;2022-09-30T17:14:15;39.17;;;11.23;;
1416;SDS011;703;51.162;13.574;2022-09-30T17:16:41;38.50;;;10.27;;
1416;SDS011;703;51.162;13.574;2022-09-30T17:19:10;37.97;;;9.40;;
1416;SDS011;703;51.162;13.574;2022-09-30T17:21:36;41.37;;;11.37;;
1416;SDS011;703;51.162;13.574;2022-09-30T17:24:02;39.70;;;11.00;;
1416;SDS011;703;51.162;13.574;2022-09-30T17:26:29;41.80;;;14.50;;
1416;SDS011;703;51.162;13.574;2022-09-30T17:28:55;42.40;;;13.70;;
1416;SDS011;703;51.162;13.574;2022-09-30T17:31:21;47.67;;;15.23;;
1416;SDS011;703;51.162;13.574;2022-09-30T17:33:47;46.60;;;17.53;;
1416;SDS011;703;51.162;13.574;2022-09-30T17:36:13;46.20;;;17.30;;
1416;SDS011;703;51.162;13.574;2022-09-30T17:38:39;46.10;;;15.80;;
1416;SDS011;703;51.162;13.574;2022-09-30T17:41:05;44.17;;;14.47;;
1416;SDS011;703;51.162;13.574;2022-09-30T17:43:50;48.80;;;15.00;;
1416;SDS011;703;51.162;13.574;2022-09-30T17:46:16;43.37;;;13.90;;
1416;SDS011;703;51.162;13.574;2022-09-30T17:48:45;45.90;;;15.20;;
1416;SDS011;703;51.162;13.574;2022-09-30T17:51:11;48.00;;;15.83;;
1416;SDS011;703;51.162;13.574;2022-09-30T17:53:38;45.10;;;15.50;;
1416;SDS011;703;51.162;13.574;2022-09-30T17:56:05;44.40;;;15.47;;
1416;SDS011;703;51.162;13.574;2022-09-30T17:58:38;43.90;;;15.50;;
1416;SDS011;703;51.162;13.574;2022-09-30T18:01:07;47.20;;;14.70;;
1416;SDS011;703;51.162;13.574;2022-09-30T18:03:34;45.97;;;15.90;;
1416;SDS011;703;51.162;13.574;2022-09-30T18:06:01;45.63;;;15.80;;
1416;SDS011;703;51.162;13.574;2022-09-30T18:08:27;47.03;;;17.37;;
1416;SDS011;703;51.162;13.574;2022-09-30T18:10:53;44.50;;;13.83;;
1416;SDS011;703;51.162;13.574;2022-09-30T18:13:21;45.30;;;15.20;;
1416;SDS011;703;51.162;13.574;2022-09-30T18:15:47;49.10;;;16.77;;
1416;SDS011;703;51.162;13.574;2022-09-30T18:18:13;49.23;;;19.23;;
1416;SDS011;703;51.162;13.574;2022-09-30T18:20:47;59.10;;;27.80;;
1416;SDS011;703;51.162;13.574;2022-09-30T18:23:14;55.27;;;26.87;;
1416;SDS011;703;51.162;13.574;2022-09-30T18:25:42;52.93;;;24.13;;
1416;SDS011;703;51.162;13.574;2022-09-30T18:28:09;53.83;;;22.07;;
1416;SDS011;703;51.162;13.574;2022-09-30T18:30:35;54.17;;;22.63;;
1416;SDS011;703;51.162;13.574;2022-09-30T18:33:02;54.70;;;24.10;;
1416;SDS011;703;51.162;13.574;2022-09-30T18:35:31;52.63;;;22.93;;
1416;SDS011;703;51.162;13.574;2022-09-30T18:37:58;53.20;;;21.60;;